Time;durP1;ratioP1;P1;durP2;ratioP2;P2;SDS_P1;SDS_P2;PMS_P1;PMS_P2;Temp;Humidity;BMP_temperature;BMP_pressure;BME280_temperature;BME280_humidity;BME280_pressure;Samples;Min_cycle;Max_cycle;Signal;HPM_P1;HPM_P2
2024/03/31 00:02:13;;;;;;;;;12.00;10.50;;;;;10.90;74.37;98910.63;5059689;28;46258;-47
2024/03/31 00:04:40;;;;;;;;;3.00;1.00;;;;;10.94;73.56;98909.53;5060463;28;71880;-50
2024/03/31 00:07:06;;;;;;;;;13.75;9.50;;;;;10.94;74.28;98906.06;5043441;28;45475;-51
2024/03/31 00:09:31;;;;;;;;;10.50;9.50;;;;;10.98;74.21;98907.59;5049392;28;45303;-48
2024/03/31 00:11:57;;;;;;;;;11.50;9.75;;;;;11.02;74.39;98909.91;5042671;28;62619;-50
2024/03/31 00:14:22;;;;;;;;;15.50;11.00;;;;;11.06;74.50;98907.13;5040968;28;45300;-50
2024/03/31 00:16:47;;;;;;;;;14.50;8.75;;;;;11.09;74.38;98901.72;5041069;28;45471;-50
2024/03/31 00:19:13;;;;;;;;;10.25;8.75;;;;;11.12;74.52;98902.38;5057766;28;71108;-50
2024/03/31 00:21:38;;;;;;;;;7.75;7.00;;;;;11.15;74.11;98890.88;5059963;28;74341;-48
2024/03/31 00:24:04;;;;;;;;;5.75;5.00;;;;;11.17;74.15;98892.47;5045086;28;73200;-52
2024/03/31 00:26:29;;;;;;;;;16.00;8.50;;;;;11.16;74.46;98884.72;5040849;28;45825;-51
2024/03/31 00:28:54;;;;;;;;;11.25;7.00;;;;;11.15;74.33;98881.22;5037823;28;75170;-52
2024/03/31 00:31:19;;;;;;;;;7.75;7.75;;;;;11.20;74.28;98891.44;5040466;28;67227;-50
2024/03/31 00:33:48;;;;;;;;;7.00;7.00;;;;;11.23;74.74;98893.06;5045164;28;45435;-49
2024/03/31 00:36:13;;;;;;;;;9.00;6.50;;;;;11.25;74.42;98878.94;5058873;28;45224;-49
2024/03/31 00:38:39;;;;;;;;;6.00;4.00;;;;;11.23;74.51;98888.66;5058418;28;70752;-47
2024/03/31 00:41:04;;;;;;;;;7.75;6.50;;;;;11.21;74.29;98882.66;5058149;28;74583;-50
2024/03/31 00:43:30;;;;;;;;;6.75;5.00;;;;;11.17;74.75;98882.00;5058048;28;45468;-51
2024/03/31 00:45:55;;;;;;;;;4.25;2.00;;;;;11.14;74.51;98879.56;5060663;28;45895;-50
2024/03/31 00:48:20;;;;;;;;;7.25;4.25;;;;;11.11;74.73;98877.13;5059470;28;72466;-46
2024/03/31 00:50:46;;;;;;;;;6.50;6.00;;;;;11.11;74.50;98874.50;5051018;28;74769;-48
2024/03/31 00:53:11;;;;;;;;;12.50;8.00;;;;;11.09;74.84;98867.69;5058647;28;45339;-48
2024/03/31 00:55:37;;;;;;;;;7.00;6.25;;;;;11.11;74.97;98863.19;5075918;28;66850;-51
2024/03/31 00:58:02;;;;;;;;;9.25;7.25;;;;;11.12;75.02;98873.59;5075424;28;45943;-49
2024/03/31 01:00:27;;;;;;;;;8.50;7.00;;;;;11.12;75.20;98868.34;5051525;28;46146;-52
2024/03/31 01:02:53;;;;;;;;;8.50;7.25;;;;;11.13;75.35;98871.81;5039935;28;72107;-48
2024/03/31 01:05:19;;;;;;;;;6.50;6.50;;;;;11.13;75.55;98871.81;5040646;28;69157;-52
2024/03/31 01:07:44;;;;;;;;;7.75;7.00;;;;;11.14;75.54;98874.34;5056286;28;63014;-52
2024/03/31 01:10:10;;;;;;;;;8.75;5.00;;;;;11.15;75.22;98878.63;5048527;28;46263;-51
2024/03/31 01:12:36;;;;;;;;;4.50;4.25;;;;;11.15;75.54;98878.63;5040965;28;45249;-49
2024/03/31 01:15:02;;;;;;;;;8.00;6.00;;;;;11.15;75.82;98875.16;5040833;28;45292;-48
2024/03/31 01:17:27;;;;;;;;;9.25;5.75;;;;;11.15;75.54;98875.16;5039063;28;45461;-49
2024/03/31 01:19:53;;;;;;;;;5.25;5.00;;;;;11.16;75.94;98876.84;5039609;28;72559;-52
2024/03/31 01:22:19;;;;;;;;;5.75;5.00;;;;;11.17;75.81;98875.91;5039380;28;70495;-50
2024/03/31 01:24:44;;;;;;;;;4.50;4.25;;;;;11.18;75.95;98875.00;5060716;28;45411;-50
2024/03/31 01:27:09;;;;;;;;;7.00;4.25;;;;;11.17;76.10;98876.78;5043248;28;67297;-49
2024/03/31 01:29:35;;;;;;;;;3.75;1.00;;;;;11.21;76.36;98861.72;5038725;28;47151;-52
2024/03/31 01:32:00;;;;;;;;;4.00;4.00;;;;;11.23;76.07;98865.09;5046077;28;45458;-49
2024/03/31 01:34:26;;;;;;;;;6.25;4.50;;;;;11.23;76.53;98862.47;5060491;28;46163;-50
2024/03/31 01:36:52;;;;;;;;;8.75;5.00;;;;;11.25;76.51;98867.63;5059106;28;45315;-51
2024/03/31 01:39:18;;;;;;;;;5.00;4.25;;;;;11.27;76.39;98861.34;5075343;28;64891;-51
2024/03/31 01:41:49;;;;;;;;;6.75;4.75;;;;;11.27;76.47;98868.38;5053471;28;45500;-50
2024/03/31 01:44:15;;;;;;;;;4.75;4.75;;;;;11.29;76.52;98866.50;5058890;28;45399;-51
2024/03/31 01:46:40;;;;;;;;;7.75;4.00;;;;;11.29;76.83;98861.25;5053631;28;45549;-49
2024/03/31 01:49:06;;;;;;;;;7.50;5.00;;;;;11.28;76.73;98857.81;5039241;28;74390;-50
2024/03/31 01:51:31;;;;;;;;;7.00;5.25;;;;;11.29;76.79;98859.47;5038979;28;72194;-49
2024/03/31 01:53:57;;;;;;;;;8.00;4.75;;;;;11.30;76.71;98858.53;5040144;28;45414;-49
2024/03/31 01:56:22;;;;;;;;;7.00;5.25;;;;;11.29;76.89;98851.63;5041907;28;45509;-50
2024/03/31 01:58:47;;;;;;;;;5.00;4.25;;;;;11.31;76.73;98857.59;5058363;28;64281;-48
2024/03/31 02:01:13;;;;;;;;;5.75;4.00;;;;;11.30;77.38;98844.63;5043314;28;71057;-50
2024/03/31 02:03:38;;;;;;;;;8.00;7.00;;;;;11.29;77.04;98838.53;5038946;28;68102;-49
2024/03/31 02:06:10;;;;;;;;;5.00;3.00;;;;;11.29;77.52;98824.59;5047792;28;45282;-51
2024/03/31 02:08:36;;;;;;;;;5.25;5.00;;;;;11.27;77.43;98829.91;5054974;28;45502;-49
2024/03/31 02:11:01;;;;;;;;;4.00;3.50;;;;;11.28;77.60;98828.13;5048069;28;49976;-50
2024/03/31 02:13:27;;;;;;;;;8.00;5.00;;;;;11.28;77.36;98829.00;5050967;28;45550;-50
2024/03/31 02:15:53;;;;;;;;;6.25;5.00;;;;;11.29;77.78;98821.97;5039461;28;45297;-51
2024/03/31 02:18:18;;;;;;;;;5.00;4.25;;;;;11.30;77.63;98831.53;5058260;28;46898;-49
2024/03/31 02:20:43;;;;;;;;;4.00;4.00;;;;;11.28;77.76;98831.63;5058740;28;72188;-48
2024/03/31 02:23:09;;;;;;;;;7.00;5.50;;;;;11.27;77.75;98829.91;5051900;28;60473;-51
2024/03/31 02:25:34;;;;;;;;;6.50;5.00;;;;;11.29;77.99;98829.84;5038946;28;57350;-52
2024/03/31 02:28:00;;;;;;;;;6.50;4.50;;;;;11.29;77.46;98821.97;5039371;28;46216;-49
2024/03/31 02:30:25;;;;;;;;;4.25;4.25;;;;;11.26;77.69;98825.63;5038188;28;73135;-51
2024/03/31 02:32:51;;;;;;;;;5.50;4.00;;;;;11.22;78.01;98826.72;5046409;28;45316;-48
2024/03/31 02:35:17;;;;;;;;;6.00;5.00;;;;;11.23;77.90;98831.06;5057870;28;45277;-52
2024/03/31 02:37:43;;;;;;;;;4.00;4.00;;;;;11.23;77.59;98825.81;5055520;28;74337;-50
2024/03/31 02:40:09;;;;;;;;;5.50;4.25;;;;;11.19;77.91;98826.91;5040958;28;45179;-50
2024/03/31 02:42:34;;;;;;;;;7.25;5.00;;;;;11.15;77.93;98826.25;5050156;28;45431;-51
2024/03/31 02:45:00;;;;;;;;;9.25;5.00;;;;;11.11;78.23;98826.56;5051885;28;70603;-49
2024/03/31 02:47:25;;;;;;;;;5.00;4.50;;;;;11.07;78.45;98809.34;5059328;28;46830;-52
2024/03/31 02:49:50;;;;;;;;;4.50;4.50;;;;;11.02;78.63;98815.69;5042703;28;72104;-49
2024/03/31 02:52:16;;;;;;;;;7.75;4.75;;;;;10.97;78.97;98820.34;5056747;28;69252;-53
2024/03/31 02:54:41;;;;;;;;;9.75;4.00;;;;;10.93;78.73;98811.00;5061677;28;45271;-50
2024/03/31 02:57:06;;;;;;;;;6.50;4.00;;;;;10.89;78.90;98817.38;5074777;28;47173;-51
2024/03/31 02:59:32;;;;;;;;;4.00;3.50;;;;;10.85;79.02;98808.00;5039716;28;45397;-50
2024/03/31 03:01:57;;;;;;;;;7.75;3.75;;;;;10.79;79.54;98803.97;5060639;28;65559;-51
2024/03/31 03:04:23;;;;;;;;;5.75;5.00;;;;;10.77;79.48;98802.38;5062694;28;45439;-50
2024/03/31 03:06:48;;;;;;;;;9.00;5.25;;;;;10.73;79.62;98796.50;5047435;28;75414;-48
2024/03/31 03:09:13;;;;;;;;;8.25;5.00;;;;;10.71;79.80;98803.59;5057654;28;74276;-52
2024/03/31 03:11:39;;;;;;;;;8.75;5.00;;;;;10.68;79.71;98793.31;5044258;28;45511;-50
2024/03/31 03:14:04;;;;;;;;;7.25;6.00;;;;;10.65;79.77;98803.94;5042570;28;45336;-52
2024/03/31 03:16:29;;;;;;;;;7.50;5.00;;;;;10.61;80.46;98797.22;5040012;28;74148;-51
2024/03/31 03:18:55;;;;;;;;;6.75;5.00;;;;;10.58;80.27;98792.97;5041692;28;61630;-51
2024/03/31 03:21:20;;;;;;;;;7.50;5.00;;;;;10.55;80.32;98790.56;5041570;28;68331;-47
2024/03/31 03:23:45;;;;;;;;;4.75;3.75;;;;;10.54;80.48;98791.50;5052070;28;66203;-47
2024/03/31 03:26:10;;;;;;;;;5.50;5.50;;;;;10.50;80.82;98787.38;5058414;28;75502;-52
2024/03/31 03:28:36;;;;;;;;;8.25;4.00;;;;;10.49;80.95;98782.22;5078099;28;45240;-51
2024/03/31 03:31:03;;;;;;;;;6.00;5.50;;;;;10.47;80.80;98778.88;5062259;28;45360;-50
2024/03/31 03:33:28;;;;;;;;;4.75;4.00;;;;;10.45;81.12;98769.31;5047665;28;45268;-51
2024/03/31 03:35:53;;;;;;;;;6.00;3.75;;;;;10.42;81.15;98777.34;5041425;28;63593;-51
2024/03/31 03:38:19;;;;;;;;;5.00;4.00;;;;;10.40;81.17;98776.59;5045944;28;72201;-50
2024/03/31 03:40:44;;;;;;;;;8.00;4.25;;;;;10.40;81.46;98773.97;5047857;28;45350;-52
2024/03/31 03:43:09;;;;;;;;;8.50;4.50;;;;;10.38;81.46;98767.16;5060841;28;45755;-54
2024/03/31 03:45:35;;;;;;;;;6.00;4.25;;;;;10.35;81.75;98762.09;5059809;28;45390;-49
2024/03/31 03:48:00;;;;;;;;;7.50;5.25;;;;;10.34;81.83;98766.50;5061073;28;45315;-52
2024/03/31 03:50:25;;;;;;;;;7.00;5.50;;;;;10.32;81.72;98763.09;5041676;28;50139;-51
2024/03/31 03:52:53;;;;;;;;;6.50;4.75;;;;;10.30;81.74;98757.09;5039715;28;72941;-53
2024/03/31 03:55:18;;;;;;;;;7.25;6.25;;;;;10.29;82.16;98758.03;5041993;28;45371;-50
2024/03/31 03:57:43;;;;;;;;;7.75;5.00;;;;;10.25;82.09;98756.50;5054507;28;50191;-50
2024/03/31 04:00:10;;;;;;;;;8.50;5.75;;;;;10.25;82.29;98756.50;5052787;28;68362;-51
2024/03/31 04:02:36;;;;;;;;;12.50;7.00;;;;;10.24;82.35;98754.84;5041656;28;45622;-48
2024/03/31 04:05:01;;;;;;;;;12.00;8.00;;;;;10.22;82.28;98760.16;5041622;28;46080;-48
2024/03/31 04:07:26;;;;;;;;;10.25;8.25;;;;;10.21;82.64;98755.84;5055477;28;71555;-51
2024/03/31 04:09:51;;;;;;;;;6.75;6.00;;;;;10.19;82.74;98760.34;5052601;28;71119;-51
2024/03/31 04:12:17;;;;;;;;;6.75;6.00;;;;;10.18;82.77;98742.97;5042715;28;72172;-49
2024/03/31 04:14:42;;;;;;;;;6.25;5.75;;;;;10.18;82.88;98748.22;5040704;28;75562;-52
2024/03/31 04:17:07;;;;;;;;;5.50;5.00;;;;;10.16;82.75;98746.59;5057825;28;65436;-48
2024/03/31 04:19:33;;;;;;;;;6.00;4.75;;;;;10.13;82.93;98739.78;5060805;28;61303;-53
2024/03/31 04:21:58;;;;;;;;;9.25;5.00;;;;;10.14;83.14;98743.22;5076072;28;72708;-49
2024/03/31 04:24:23;;;;;;;;;7.25;4.75;;;;;10.12;82.84;98738.09;5042823;28;74353;-50
2024/03/31 04:26:49;;;;;;;;;5.25;5.00;;;;;10.12;83.22;98737.25;5040923;28;52095;-50
2024/03/31 04:29:15;;;;;;;;;8.75;3.50;;;;;10.11;83.27;98725.09;5041201;28;45210;-49
2024/03/31 04:31:54;;;;;;;;;6.25;5.00;;;;;10.10;83.25;98729.50;5046615;28;45324;-51
2024/03/31 04:34:21;;;;;;;;;7.00;4.00;;;;;10.07;83.24;98727.91;5061067;28;45443;-53
2024/03/31 04:36:48;;;;;;;;;7.75;4.25;;;;;10.05;83.49;98719.28;5061299;28;45205;-49
2024/03/31 04:39:13;;;;;;;;;5.00;3.00;;;;;10.05;83.31;98721.06;5061554;28;45413;-48
2024/03/31 04:41:38;;;;;;;;;5.00;4.00;;;;;10.03;83.61;98712.50;5053662;28;67161;-52
2024/03/31 04:44:03;;;;;;;;;4.25;3.00;;;;;10.02;83.56;98716.88;5046439;28;61281;-52
2024/03/31 04:46:29;;;;;;;;;4.50;4.00;;;;;10.01;83.59;98711.75;5058929;28;52268;-51
2024/03/31 04:48:54;;;;;;;;;6.25;4.00;;;;;10.00;83.66;98718.72;5052194;28;69297;-52
2024/03/31 04:51:20;;;;;;;;;6.50;4.00;;;;;9.99;83.65;98716.22;5058630;28;71897;-47
2024/03/31 04:53:45;;;;;;;;;4.00;4.00;;;;;9.97;83.73;98716.31;5060966;28;46196;-52
2024/03/31 04:56:11;;;;;;;;;5.00;3.25;;;;;9.99;83.93;98718.81;5059689;28;73127;-48
2024/03/31 04:58:36;;;;;;;;;5.00;5.00;;;;;9.99;84.07;98724.06;5058911;28;67117;-51
2024/03/31 05:01:01;;;;;;;;;5.00;4.00;;;;;9.97;83.92;98713.69;5045624;28;73220;-50
2024/03/31 05:03:27;;;;;;;;;6.75;4.75;;;;;9.97;84.10;98724.13;5040418;28;54316;-53
2024/03/31 05:05:52;;;;;;;;;6.50;3.75;;;;;9.96;83.84;98722.44;5046078;28;56672;-51
2024/03/31 05:08:18;;;;;;;;;6.00;4.00;;;;;9.96;83.82;98725.06;5058981;28;45376;-48
2024/03/31 05:10:53;;;;;;;;;3.00;3.00;;;;;9.96;84.19;98719.81;5047987;28;70221;-50
2024/03/31 05:13:19;;;;;;;;;7.25;5.50;;;;;9.95;83.99;98714.69;5040710;28;47137;-51
2024/03/31 05:15:44;;;;;;;;;11.00;6.75;;;;;9.94;83.99;98726.09;5039465;28;62026;-53
2024/03/31 05:18:09;;;;;;;;;8.25;5.00;;;;;9.91;83.94;98715.78;5038870;28;65778;-46
2024/03/31 05:20:35;;;;;;;;;4.75;4.50;;;;;9.92;84.25;98717.50;5039237;28;45276;-47
2024/03/31 05:23:00;;;;;;;;;3.75;1.00;;;;;9.91;84.09;98714.03;5045174;28;75024;-50
2024/03/31 05:25:25;;;;;;;;;5.25;3.25;;;;;9.90;84.06;98714.97;5044515;28;72008;-50
2024/03/31 05:27:51;;;;;;;;;11.00;4.00;;;;;9.89;83.91;98719.31;5039413;28;69350;-50
2024/03/31 05:30:16;;;;;;;;;3.00;3.00;;;;;9.91;83.75;98713.19;5039172;28;72990;-51
2024/03/31 05:32:42;;;;;;;;;3.75;3.00;;;;;9.91;84.02;98719.25;5058928;28;47068;-52
2024/03/31 05:35:07;;;;;;;;;3.00;2.00;;;;;9.93;84.24;98720.00;5059480;28;72929;-51
2024/03/31 05:37:32;;;;;;;;;3.75;3.00;;;;;9.95;84.05;98715.56;5074293;28;68242;-50
2024/03/31 05:39:58;;;;;;;;;4.50;2.00;;;;;9.98;84.21;98717.97;5039824;28;70360;-51
2024/03/31 05:42:23;;;;;;;;;7.00;3.75;;;;;10.01;83.92;98728.25;5052225;28;68672;-50
2024/03/31 05:44:48;;;;;;;;;4.25;3.00;;;;;10.02;83.97;98718.63;5051250;28;73194;-50
2024/03/31 05:47:13;;;;;;;;;3.00;3.00;;;;;10.03;83.60;98718.53;5059515;28;45613;-53
2024/03/31 05:49:39;;;;;;;;;5.75;2.75;;;;;10.04;83.70;98708.97;5046879;28;49114;-49
2024/03/31 05:52:04;;;;;;;;;4.00;3.00;;;;;10.05;83.67;98714.06;5039608;28;53616;-50
2024/03/31 05:54:30;;;;;;;;;3.75;3.00;;;;;10.06;83.43;98721.00;5040009;28;45278;-52
2024/03/31 05:56:55;;;;;;;;;4.00;3.00;;;;;10.06;83.34;98718.38;5045793;28;69323;-52
2024/03/31 05:59:20;;;;;;;;;4.75;4.00;;;;;10.08;83.70;98718.28;5058615;28;45331;-50
2024/03/31 06:01:45;;;;;;;;;4.00;3.00;;;;;10.09;83.49;98714.72;5052044;28;76026;-54
2024/03/31 06:04:11;;;;;;;;;5.25;3.25;;;;;10.13;83.32;98721.50;5039054;28;72132;-49
2024/03/31 06:06:36;;;;;;;;;4.75;4.00;;;;;10.13;83.10;98716.25;5031032;28;45431;-52
2024/03/31 06:09:02;;;;;;;;;3.50;3.50;;;;;10.14;83.18;98717.94;5051794;28;73138;-53
2024/03/31 06:11:27;;;;;;;;;5.75;4.00;;;;;10.14;82.98;98722.31;5041176;28;74154;-48
2024/03/31 06:13:52;;;;;;;;;5.50;3.75;;;;;10.15;83.11;98716.19;5038815;28;69593;-51
2024/03/31 06:16:18;;;;;;;;;5.00;2.00;;;;;10.16;83.22;98720.47;5057604;28;68417;-51
2024/03/31 06:18:43;;;;;;;;;4.75;1.50;;;;;10.19;82.97;98705.44;5058943;28;73404;-50
2024/03/31 06:21:09;;;;;;;;;8.75;3.25;;;;;10.23;83.21;98706.97;5059673;28;47169;-49
2024/03/31 06:23:35;;;;;;;;;5.00;3.75;;;;;10.26;82.80;98705.94;5049428;27;45609;-49
2024/03/31 06:26:01;;;;;;;;;5.50;4.00;;;;;10.29;82.71;98704.91;5039441;28;45265;-50
2024/03/31 06:28:27;;;;;;;;;3.75;3.00;;;;;10.33;82.87;98701.22;5041402;28;45213;-47
2024/03/31 06:30:52;;;;;;;;;4.75;3.00;;;;;10.35;82.38;98697.56;5048077;28;46198;-46
2024/03/31 06:33:17;;;;;;;;;6.50;3.00;;;;;10.39;82.53;98695.63;5048878;28;60653;-47
2024/03/31 06:35:43;;;;;;;;;4.00;3.00;;;;;10.40;82.58;98700.75;5043069;28;45375;-53
2024/03/31 06:38:08;;;;;;;;;5.75;4.00;;;;;10.45;82.30;98692.66;5046769;28;72174;-48
2024/03/31 06:40:34;;;;;;;;;3.25;3.25;;;;;10.48;82.11;98695.06;5047095;28;71552;-54
2024/03/31 06:43:00;;;;;;;;;6.25;3.25;;;;;10.53;82.18;98700.88;5050695;28;45313;-49
2024/03/31 06:45:26;;;;;;;;;4.50;3.00;;;;;10.59;81.91;98697.06;5059074;28;45307;-48
2024/03/31 06:47:51;;;;;;;;;5.75;4.00;;;;;10.66;81.89;98692.28;5063674;27;45423;-48
2024/03/31 06:50:17;;;;;;;;;4.50;4.00;;;;;10.74;81.74;98688.28;5060490;28;74660;-48
2024/03/31 06:52:42;;;;;;;;;5.75;3.25;;;;;10.86;81.68;98691.94;5062016;28;69733;-47
2024/03/31 06:55:07;;;;;;;;;3.75;3.75;;;;;10.97;81.36;98688.66;5062066;28;64996;-47
2024/03/31 06:57:33;;;;;;;;;8.00;4.50;;;;;11.09;81.21;98684.44;5062693;28;45416;-47
2024/03/31 06:59:58;;;;;;;;;3.00;3.00;;;;;11.24;80.91;98682.63;5056381;28;46961;-48
2024/03/31 07:02:23;;;;;;;;;3.50;3.50;;;;;11.36;80.39;98677.47;5042022;28;60824;-47
2024/03/31 07:04:49;;;;;;;;;4.00;2.75;;;;;11.50;79.98;98678.38;5041633;28;69317;-47
2024/03/31 07:07:14;;;;;;;;;5.50;1.00;;;;;11.64;79.63;98673.09;5047924;28;73237;-51
2024/03/31 07:09:39;;;;;;;;;5.25;3.00;;;;;11.79;79.00;98681.72;5049165;28;74551;-48
2024/03/31 07:12:05;;;;;;;;;4.75;4.00;;;;;11.94;78.61;98680.75;5043616;28;70112;-50
2024/03/31 07:14:31;;;;;;;;;7.75;4.00;;;;;12.10;78.18;98674.53;5042543;28;45489;-49
2024/03/31 07:16:58;;;;;;;;;8.50;6.75;;;;;12.23;77.46;98675.38;5041675;28;67877;-50
2024/03/31 07:19:24;;;;;;;;;9.00;6.25;;;;;12.38;77.23;98675.28;5042698;28;46381;-49
2024/03/31 07:21:49;;;;;;;;;4.50;2.00;;;;;12.49;76.59;98671.00;5042339;28;45180;-50
2024/03/31 07:24:14;;;;;;;;;7.00;4.25;;;;;12.61;76.16;98665.88;5054487;28;69253;-48
2024/03/31 07:26:39;;;;;;;;;5.75;3.00;;;;;12.72;75.53;98660.72;5041153;28;72129;-49
2024/03/31 07:29:05;;;;;;;;;3.75;2.00;;;;;12.80;74.67;98653.16;5051303;28;75636;-49
2024/03/31 07:31:30;;;;;;;;;3.00;2.00;;;;;12.89;74.19;98654.25;5045041;28;71956;-49
2024/03/31 07:33:55;;;;;;;;;5.75;2.00;;;;;12.97;73.23;98651.13;5043377;28;69408;-49
2024/03/31 07:36:21;;;;;;;;;2.00;1.50;;;;;13.03;72.94;98646.28;5041896;28;71824;-49
2024/03/31 07:38:46;;;;;;;;;3.50;1.00;;;;;13.07;72.28;98645.09;5040577;28;74392;-52
2024/03/31 07:41:11;;;;;;;;;3.00;2.00;;;;;13.10;72.06;98644.91;5057313;28;73290;-47
2024/03/31 07:43:37;;;;;;;;;3.25;2.00;;;;;13.14;71.64;98644.66;5045226;28;67972;-51
2024/03/31 07:46:02;;;;;;;;;4.00;2.50;;;;;13.15;71.43;98638.47;5059543;28;72671;-49
2024/03/31 07:48:27;;;;;;;;;1.75;1.75;;;;;13.17;71.04;98644.44;5057382;28;45411;-50
2024/03/31 07:50:53;;;;;;;;;4.50;2.00;;;;;13.17;70.73;98632.16;5041078;28;73176;-52
2024/03/31 07:53:18;;;;;;;;;2.00;2.00;;;;;13.18;70.88;98633.00;5041032;28;68182;-51
2024/03/31 07:55:43;;;;;;;;;3.25;1.75;;;;;13.21;70.41;98638.88;5040773;28;69757;-50
2024/03/31 07:58:09;;;;;;;;;4.00;1.00;;;;;13.22;70.13;98642.34;5058628;28;47894;-48
2024/03/31 08:00:34;;;;;;;;;1.50;1.00;;;;;13.24;69.76;98640.44;5050907;28;71074;-51
2024/03/31 08:02:59;;;;;;;;;4.00;1.00;;;;;13.23;69.89;98647.47;5041711;28;45304;-48
2024/03/31 08:05:25;;;;;;;;;3.00;1.75;;;;;13.23;69.55;98638.78;5043332;28;73060;-51
2024/03/31 08:07:51;;;;;;;;;2.75;2.00;;;;;13.23;69.08;98636.97;5058181;28;46146;-51
2024/03/31 08:10:16;;;;;;;;;2.25;1.75;;;;;13.24;69.19;98640.44;5048807;28;70251;-50
2024/03/31 08:12:41;;;;;;;;;1.75;0.75;;;;;13.25;69.07;98648.22;5042360;28;45572;-49
2024/03/31 08:15:07;;;;;;;;;2.00;1.00;;;;;13.27;69.41;98642.84;5057755;28;73348;-51
2024/03/31 08:17:32;;;;;;;;;1.00;1.00;;;;;13.26;68.75;98642.03;5061357;28;46064;-48
2024/03/31 08:19:57;;;;;;;;;4.75;1.00;;;;;13.28;68.66;98642.75;5061904;28;45214;-48
2024/03/31 08:22:23;;;;;;;;;6.50;1.75;;;;;13.32;68.99;98639.94;5060122;28;64248;-50
2024/03/31 08:24:48;;;;;;;;;1.00;1.00;;;;;13.35;68.75;98635.28;5056468;28;68991;-49
2024/03/31 08:27:14;;;;;;;;;2.75;0.00;;;;;13.38;68.31;98636.84;5043651;28;46228;-48
2024/03/31 08:29:40;;;;;;;;;1.00;1.00;;;;;13.42;68.33;98639.16;5041412;28;45234;-51
2024/03/31 08:32:05;;;;;;;;;4.50;1.50;;;;;13.48;68.11;98643.13;5054914;28;45321;-52
2024/03/31 08:34:31;;;;;;;;;5.25;1.75;;;;;13.54;68.05;98647.09;5045920;28;45456;-51
2024/03/31 08:36:56;;;;;;;;;1.75;1.00;;;;;13.60;67.76;98644.84;5045035;28;74550;-53
2024/03/31 08:39:22;;;;;;;;;1.00;1.00;;;;;13.67;67.74;98645.25;5041142;28;45276;-52
2024/03/31 08:41:50;;;;;;;;;4.00;0.00;;;;;13.75;67.39;98652.56;5052775;28;69523;-50
2024/03/31 08:44:16;;;;;;;;;0.00;0.00;;;;;13.82;67.20;98651.16;5048834;28;45303;-49
2024/03/31 08:46:42;;;;;;;;;1.00;0.00;;;;;13.89;66.64;98638.41;5059236;28;47241;-50
2024/03/31 08:49:08;;;;;;;;;0.00;0.00;;;;;13.93;66.54;98632.78;5052502;28;45205;-49
2024/03/31 08:51:33;;;;;;;;;2.00;0.25;;;;;13.99;65.94;98634.13;5038897;28;45226;-49
2024/03/31 08:53:59;;;;;;;;;2.50;0.00;;;;;14.04;66.42;98626.72;5040185;28;72136;-52
2024/03/31 08:56:24;;;;;;;;;2.00;0.00;;;;;14.11;66.16;98622.69;5037056;28;46029;-52
2024/03/31 08:58:49;;;;;;;;;2.00;0.25;;;;;14.17;65.70;98616.97;5059375;28;68476;-51
2024/03/31 09:01:16;;;;;;;;;34.75;30.75;;;;;14.23;65.75;98624.38;5043754;28;45322;-53
2024/03/31 09:03:41;;;;;;;;;49.50;38.00;;;;;14.29;65.89;98623.09;5039046;28;54827;-50
2024/03/31 09:06:07;;;;;;;;;2.00;1.00;;;;;14.32;65.51;98622.84;5048014;28;74036;-52
2024/03/31 09:08:32;;;;;;;;;1.00;1.00;;;;;14.37;65.62;98625.13;5043389;28;72982;-51
2024/03/31 09:10:57;;;;;;;;;3.00;1.00;;;;;14.45;65.43;98620.13;5044535;28;66398;-50
2024/03/31 09:13:23;;;;;;;;;1.50;1.00;;;;;14.54;65.37;98632.56;5040351;28;56884;-50
2024/03/31 09:15:48;;;;;;;;;0.50;0.50;;;;;14.61;65.12;98615.38;5039532;28;70211;-50
2024/03/31 09:18:14;;;;;;;;;2.75;1.00;;;;;14.71;65.13;98615.47;5040808;28;45285;-52
2024/03/31 09:20:39;;;;;;;;;2.00;1.00;;;;;14.86;65.05;98616.09;5038285;28;68275;-49
2024/03/31 09:23:05;;;;;;;;;0.00;0.00;;;;;14.97;64.57;98615.25;5054385;28;69927;-49
2024/03/31 09:25:30;;;;;;;;;0.00;0.00;;;;;15.05;64.71;98612.84;5058117;28;74596;-49
2024/03/31 09:28:00;;;;;;;;;1.00;1.00;;;;;15.11;63.73;98617.59;5038451;28;70295;-51
2024/03/31 09:30:29;;;;;;;;;0.00;0.00;;;;;15.19;63.40;98614.34;5022969;28;45347;-51
2024/03/31 09:32:56;;;;;;;;;2.25;0.00;;;;;15.26;63.54;98617.34;5050853;28;45474;-52
2024/03/31 09:35:25;;;;;;;;;1.75;0.50;;;;;15.34;63.58;98613.13;5042988;28;74389;-54
2024/03/31 09:37:50;;;;;;;;;1.00;0.00;;;;;15.46;63.28;98618.38;5040448;28;45938;-50
2024/03/31 09:40:16;;;;;;;;;1.75;0.00;;;;;15.54;62.95;98608.84;5058388;28;45480;-49
2024/03/31 09:42:43;;;;;;;;;0.00;0.00;;;;;15.65;62.65;98605.38;5050631;28;45387;-52
2024/03/31 09:45:12;;;;;;;;;1.00;0.00;;;;;15.74;62.71;98599.38;5054298;28;45320;-49
2024/03/31 09:47:43;;;;;;;;;0.00;0.00;;;;;15.87;62.24;98603.63;5060298;28;45223;-50
2024/03/31 09:50:27;;;;;;;;;0.75;0.00;;;;;15.94;61.71;98605.59;5041649;28;45426;-48
2024/03/31 09:52:58;;;;;;;;;0.00;0.00;;;;;16.08;61.65;98601.81;5040124;28;45466;-51
2024/03/31 09:55:25;;;;;;;;;0.00;0.00;;;;;16.21;60.53;98598.97;5045605;28;45344;-51
2024/03/31 09:57:51;;;;;;;;;0.00;0.00;;;;;16.38;60.55;98596.69;5060020;28;45626;-53
2024/03/31 10:00:18;;;;;;;;;0.00;0.00;;;;;16.54;59.79;98605.00;5051067;28;45281;-50
2024/03/31 10:02:54;;;;;;;;;0.00;0.00;;;;;16.67;59.67;98604.78;5039833;28;46396;-50
2024/03/31 10:05:32;;;;;;;;;0.00;0.00;;;;;16.77;59.59;98612.72;5041852;28;45419;-51
2024/03/31 10:07:59;;;;;;;;;2.00;0.00;;;;;16.78;58.84;98601.19;5054176;28;45579;-50
2024/03/31 10:10:26;;;;;;;;;0.00;0.00;;;;;16.80;58.81;98594.81;5047750;28;45453;-51
2024/03/31 10:12:53;;;;;;;;;0.00;0.00;;;;;16.94;58.74;98598.91;5056522;28;45451;-53
2024/03/31 10:15:19;;;;;;;;;0.00;0.00;;;;;17.14;58.50;98599.81;5058829;28;75554;-49
2024/03/31 10:17:47;;;;;;;;;0.75;0.00;;;;;17.34;58.19;98599.84;5059930;28;45329;-52
2024/03/31 10:20:14;;;;;;;;;0.00;0.00;;;;;17.51;58.03;98603.59;5048817;28;45202;-50
2024/03/31 10:22:41;;;;;;;;;0.75;0.00;;;;;17.58;57.75;98599.44;5039432;28;45292;-50
2024/03/31 10:25:09;;;;;;;;;0.00;0.00;;;;;17.64;57.28;98604.19;5038326;28;49654;-49
2024/03/31 10:27:36;;;;;;;;;1.75;0.00;;;;;17.63;57.00;98600.69;5021594;28;45364;-50
2024/03/31 10:30:02;;;;;;;;;0.75;0.75;;;;;17.61;57.01;98600.00;5048071;28;45306;-48
2024/03/31 10:32:27;;;;;;;;;0.00;0.00;;;;;17.62;56.88;98592.91;5053932;28;45504;-48
2024/03/31 10:34:53;;;;;;;;;0.50;0.00;;;;;17.64;57.09;98589.13;5038582;28;75554;-48
2024/03/31 10:37:19;;;;;;;;;0.00;0.00;;;;;17.69;56.79;98574.66;5037294;28;69438;-54
2024/03/31 10:39:44;;;;;;;;;0.00;0.00;;;;;17.70;56.55;98578.97;5021778;28;45342;-47
2024/03/31 10:42:10;;;;;;;;;0.00;0.00;;;;;17.74;56.66;98588.28;5050921;28;45679;-52
2024/03/31 10:44:37;;;;;;;;;0.75;0.00;;;;;17.80;56.38;98585.94;5049725;28;46204;-50
2024/03/31 10:47:05;;;;;;;;;0.00;0.00;;;;;17.80;55.70;98587.75;5056471;28;45601;-50
2024/03/31 10:49:35;;;;;;;;;1.00;0.00;;;;;17.79;56.14;98588.72;5058545;28;45330;-49
2024/03/31 10:52:00;;;;;;;;;0.00;0.00;;;;;17.81;55.89;98584.97;5054939;28;45513;-52
2024/03/31 10:54:35;;;;;;;;;0.50;0.00;;;;;17.81;55.91;98582.31;5038278;28;75576;-53
2024/03/31 10:57:10;;;;;;;;;5.50;4.75;;;;;17.77;56.05;98582.72;5046727;28;45775;-52
2024/03/31 10:59:40;;;;;;;;;0.75;0.25;;;;;17.76;56.06;98583.69;5055884;28;45389;-52
2024/03/31 11:02:20;;;;;;;;;0.25;0.00;;;;;17.78;56.04;98584.41;5038077;28;45400;-51
2024/03/31 11:05:08;;;;;;;;;0.00;0.00;;;;;17.81;55.69;98578.81;5053102;28;47028;-47
2024/03/31 11:07:39;;;;;;;;;1.25;0.00;;;;;17.93;55.79;98582.19;5039172;28;45284;-49
2024/03/31 11:10:09;;;;;;;;;0.00;0.00;;;;;18.06;55.73;98581.88;5053646;28;45459;-47
2024/03/31 11:12:38;;;;;;;;;0.00;0.00;;;;;18.24;55.67;98584.63;5043462;28;45310;-48
2024/03/31 11:15:07;;;;;;;;;1.75;0.00;;;;;18.39;55.17;98580.56;5041550;28;46177;-47
2024/03/31 11:17:33;;;;;;;;;0.00;0.00;;;;;18.49;54.75;98581.34;5044844;28;45260;-48
2024/03/31 11:20:00;;;;;;;;;0.25;0.00;;;;;18.51;54.58;98578.56;5051194;28;68862;-49
2024/03/31 11:22:25;;;;;;;;;0.00;0.00;;;;;18.48;54.16;98576.19;5061019;28;45410;-50
2024/03/31 11:24:51;;;;;;;;;0.00;0.00;;;;;18.54;54.22;98567.69;5041058;28;45495;-48
2024/03/31 11:27:16;;;;;;;;;0.75;0.00;;;;;18.62;53.86;98569.59;5042207;28;45208;-48
2024/03/31 11:29:42;;;;;;;;;0.00;0.00;;;;;18.70;54.17;98567.06;5041119;28;45372;-57